sensor_id;sensor_type;location;lat;lon;timestamp;pressure;altitude;pressure_sealevel;temperature;humidity
65716;BME280;63484;52.054;8.518;2022-12-31T00:00:37;99493.63;;;13.33;90.80
65716;BME280;63484;52.054;8.518;2022-12-31T00:05:38;99511.16;;;13.24;91.32
65716;BME280;63484;52.054;8.518;2022-12-31T00:10:38;99508.31;;;13.16;91.97
65716;BME280;63484;52.054;8.518;2022-12-31T00:15:41;99506.25;;;13.29;90.85
65716;BME280;63484;52.054;8.518;2022-12-31T00:20:42;99519.16;;;13.13;93.58
65716;BME280;63484;52.054;8.518;2022-12-31T00:25:42;99525.00;;;13.07;95.16
65716;BME280;63484;52.054;8.518;2022-12-31T00:30:42;99515.84;;;13.11;95.15
65716;BME280;63484;52.054;8.518;2022-12-31T00:35:42;99521.38;;;13.08;96.21
65716;BME280;63484;52.054;8.518;2022-12-31T00:40:43;99526.75;;;12.97;97.03
65716;BME280;63484;52.054;8.518;2022-12-31T00:45:43;99523.03;;;13.00;96.67
65716;BME280;63484;52.054;8.518;2022-12-31T00:50:44;99509.13;;;12.88;97.17
65716;BME280;63484;52.054;8.518;2022-12-31T00:55:44;99517.44;;;12.84;98.04
65716;BME280;63484;52.054;8.518;2022-12-31T01:00:45;99515.47;;;12.86;97.59
65716;BME280;63484;52.054;8.518;2022-12-31T01:05:45;99505.06;;;12.84;98.12
65716;BME280;63484;52.054;8.518;2022-12-31T01:10:49;99504.53;;;12.90;97.39
65716;BME280;63484;52.054;8.518;2022-12-31T01:16:10;99512.84;;;12.86;97.89
65716;BME280;63484;52.054;8.518;2022-12-31T01:21:11;99510.50;;;12.92;97.86
65716;BME280;63484;52.054;8.518;2022-12-31T01:26:14;99513.41;;;12.89;97.75
65716;BME280;63484;52.054;8.518;2022-12-31T01:31:18;99499.94;;;12.92;98.49
65716;BME280;63484;52.054;8.518;2022-12-31T01:36:24;99519.09;;;12.85;98.00
65716;BME280;63484;52.054;8.518;2022-12-31T01:41:30;99513.81;;;12.85;98.96
65716;BME280;63484;52.054;8.518;2022-12-31T01:46:37;99509.13;;;12.88;98.25
65716;BME280;63484;52.054;8.518;2022-12-31T01:51:39;99510.63;;;12.81;99.10
65716;BME280;63484;52.054;8.518;2022-12-31T01:56:42;99507.53;;;12.76;100.00
65716;BME280;63484;52.054;8.518;2022-12-31T02:01:43;99502.97;;;12.69;100.00
65716;BME280;63484;52.054;8.518;2022-12-31T02:06:52;99491.28;;;12.71;100.00
65716;BME280;63484;52.054;8.518;2022-12-31T02:11:54;99499.03;;;12.63;100.00
65716;BME280;63484;52.054;8.518;2022-12-31T02:33:11;99442.72;;;12.64;100.00
65716;BME280;63484;52.054;8.518;2022-12-31T02:38:25;99442.16;;;12.70;100.00
65716;BME280;63484;52.054;8.518;2022-12-31T02:43:27;99444.66;;;12.72;100.00
65716;BME280;63484;52.054;8.518;2022-12-31T02:53:56;99410.66;;;12.78;100.00
65716;BME280;63484;52.054;8.518;2022-12-31T02:59:08;99419.84;;;12.74;100.00
65716;BME280;63484;52.054;8.518;2022-12-31T03:04:30;99406.50;;;12.76;100.00
65716;BME280;63484;52.054;8.518;2022-12-31T03:09:33;99404.16;;;12.82;100.00
65716;BME280;63484;52.054;8.518;2022-12-31T03:14:34;99393.19;;;12.87;100.00
65716;BME280;63484;52.054;8.518;2022-12-31T03:19:34;99382.50;;;12.88;100.00
65716;BME280;63484;52.054;8.518;2022-12-31T03:24:59;99379.16;;;12.96;100.00
65716;BME280;63484;52.054;8.518;2022-12-31T03:30:19;99395.53;;;12.99;100.00
65716;BME280;63484;52.054;8.518;2022-12-31T03:35:21;99388.19;;;13.22;100.00
65716;BME280;63484;52.054;8.518;2022-12-31T03:40:23;99394.13;;;13.33;100.00
65716;BME280;63484;52.054;8.518;2022-12-31T03:45:24;99383.00;;;13.39;99.68
65716;BME280;63484;52.054;8.518;2022-12-31T03:50:24;99388.50;;;13.55;98.42
65716;BME280;63484;52.054;8.518;2022-12-31T03:55:25;99382.50;;;13.72;97.61
65716;BME280;63484;52.054;8.518;2022-12-31T04:00:25;99413.44;;;13.89;96.73
65716;BME280;63484;52.054;8.518;2022-12-31T04:05:25;99431.56;;;13.75;98.75
65716;BME280;63484;52.054;8.518;2022-12-31T04:10:26;99509.88;;;13.66;100.00
65716;BME280;63484;52.054;8.518;2022-12-31T04:15:26;99486.41;;;13.25;100.00
65716;BME280;63484;52.054;8.518;2022-12-31T04:20:26;99475.53;;;13.00;100.00
65716;BME280;63484;52.054;8.518;2022-12-31T04:25:27;99478.97;;;12.81;100.00
65716;BME280;63484;52.054;8.518;2022-12-31T04:30:27;99497.69;;;12.69;100.00
65716;BME280;63484;52.054;8.518;2022-12-31T04:35:27;99492.13;;;12.62;100.00
65716;BME280;63484;52.054;8.518;2022-12-31T04:40:28;99483.19;;;12.53;100.00
65716;BME280;63484;52.054;8.518;2022-12-31T04:45:28;99498.22;;;12.53;100.00
65716;BME280;63484;52.054;8.518;2022-12-31T04:50:29;99514.72;;;12.55;100.00
65716;BME280;63484;52.054;8.518;2022-12-31T04:55:29;99501.06;;;12.40;100.00
65716;BME280;63484;52.054;8.518;2022-12-31T05:00:29;99487.16;;;12.38;100.00
65716;BME280;63484;52.054;8.518;2022-12-31T05:05:30;99493.56;;;12.36;100.00
65716;BME280;63484;52.054;8.518;2022-12-31T05:10:30;99504.81;;;12.38;100.00
65716;BME280;63484;52.054;8.518;2022-12-31T05:15:30;99484.16;;;12.43;100.00
65716;BME280;63484;52.054;8.518;2022-12-31T05:20:31;99481.53;;;12.43;100.00
65716;BME280;63484;52.054;8.518;2022-12-31T05:25:32;99491.53;;;12.49;100.00
65716;BME280;63484;52.054;8.518;2022-12-31T05:30:32;99482.66;;;12.59;100.00
65716;BME280;63484;52.054;8.518;2022-12-31T05:35:33;99485.88;;;12.63;100.00
65716;BME280;63484;52.054;8.518;2022-12-31T05:40:33;99476.28;;;12.62;100.00
65716;BME280;63484;52.054;8.518;2022-12-31T05:45:34;99482.25;;;12.54;100.00
65716;BME280;63484;52.054;8.518;2022-12-31T05:50:34;99472.84;;;12.71;100.00
65716;BME280;63484;52.054;8.518;2022-12-31T05:55:37;99465.50;;;12.84;100.00
65716;BME280;63484;52.054;8.518;2022-12-31T06:00:38;99466.06;;;12.97;100.00
65716;BME280;63484;52.054;8.518;2022-12-31T06:05:40;99460.28;;;13.13;100.00
65716;BME280;63484;52.054;8.518;2022-12-31T06:10:41;99454.00;;;13.33;100.00
65716;BME280;63484;52.054;8.518;2022-12-31T06:15:41;99434.00;;;13.49;100.00
65716;BME280;63484;52.054;8.518;2022-12-31T06:20:44;99425.78;;;13.52;100.00
65716;BME280;63484;52.054;8.518;2022-12-31T06:25:44;99425.16;;;13.77;100.00
65716;BME280;63484;52.054;8.518;2022-12-31T06:30:45;99438.78;;;13.82;100.00
65716;BME280;63484;52.054;8.518;2022-12-31T06:35:46;99433.38;;;14.11;99.33
65716;BME280;63484;52.054;8.518;2022-12-31T06:40:46;99435.28;;;14.19;98.14
65716;BME280;63484;52.054;8.518;2022-12-31T06:45:46;99453.56;;;14.49;95.31
65716;BME280;63484;52.054;8.518;2022-12-31T06:50:47;99468.69;;;14.74;91.91
65716;BME280;63484;52.054;8.518;2022-12-31T06:55:48;99460.69;;;14.83;91.24
65716;BME280;63484;52.054;8.518;2022-12-31T07:01:14;99473.13;;;15.18;88.77
65716;BME280;63484;52.054;8.518;2022-12-31T07:06:29;99490.31;;;15.32;87.72
65716;BME280;63484;52.054;8.518;2022-12-31T07:11:46;99511.72;;;15.38;87.48
65716;BME280;63484;52.054;8.518;2022-12-31T07:17:26;99522.81;;;15.24;89.42
65716;BME280;63484;52.054;8.518;2022-12-31T07:22:28;99528.13;;;15.24;89.10
65716;BME280;63484;52.054;8.518;2022-12-31T07:27:57;99515.97;;;15.31;88.44
65716;BME280;63484;52.054;8.518;2022-12-31T07:43:33;99559.25;;;15.22;89.30
65716;BME280;63484;52.054;8.518;2022-12-31T07:48:35;99554.00;;;15.40;88.64
65716;BME280;63484;52.054;8.518;2022-12-31T07:53:35;99562.31;;;15.17;91.08
65716;BME280;63484;52.054;8.518;2022-12-31T07:58:49;99566.44;;;15.29;89.70
65716;BME280;63484;52.054;8.518;2022-12-31T08:09:00;99566.59;;;15.28;88.79
65716;BME280;63484;52.054;8.518;2022-12-31T08:14:07;99564.56;;;15.57;85.90
65716;BME280;63484;52.054;8.518;2022-12-31T08:19:22;99565.13;;;15.61;84.38
65716;BME280;63484;52.054;8.518;2022-12-31T08:24:38;99572.22;;;15.78;83.28
65716;BME280;63484;52.054;8.518;2022-12-31T08:30:15;99569.16;;;15.90;82.19
65716;BME280;63484;52.054;8.518;2022-12-31T08:35:49;99584.84;;;16.01;81.51
65716;BME280;63484;52.054;8.518;2022-12-31T08:41:08;99580.88;;;16.05;81.06
65716;BME280;63484;52.054;8.518;2022-12-31T08:46:46;99562.06;;;16.42;77.99
65716;BME280;63484;52.054;8.518;2022-12-31T08:51:48;99564.66;;;16.51;77.17
65716;BME280;63484;52.054;8.518;2022-12-31T09:02:32;99593.03;;;16.59;77.09
65716;BME280;63484;52.054;8.518;2022-12-31T09:07:38;99583.31;;;16.68;76.29
65716;BME280;63484;52.054;8.518;2022-12-31T09:13:09;99597.47;;;16.76;76.70
65716;BME280;63484;52.054;8.518;2022-12-31T09:18:14;99603.00;;;16.91;75.17
65716;BME280;63484;52.054;8.518;2022-12-31T09:23:14;99611.53;;;16.77;76.11
65716;BME280;63484;52.054;8.518;2022-12-31T09:33:45;99608.72;;;17.12;72.78
65716;BME280;63484;52.054;8.518;2022-12-31T09:39:02;99600.44;;;17.15;73.21
65716;BME280;63484;52.054;8.518;2022-12-31T10:01:11;99628.00;;;17.22;71.17
65716;BME280;63484;52.054;8.518;2022-12-31T10:06:26;99605.97;;;17.29;70.12
65716;BME280;63484;52.054;8.518;2022-12-31T10:11:31;99626.69;;;17.26;70.75
65716;BME280;63484;52.054;8.518;2022-12-31T10:16:43;99598.34;;;17.34;70.71
65716;BME280;63484;52.054;8.518;2022-12-31T10:37:16;99678.34;;;17.31;70.49
65716;BME280;63484;52.054;8.518;2022-12-31T10:42:47;99711.63;;;17.02;73.93
65716;BME280;63484;52.054;8.518;2022-12-31T10:53:41;99757.84;;;16.91;74.49
65716;BME280;63484;52.054;8.518;2022-12-31T10:59:08;99741.16;;;16.99;73.82
65716;BME280;63484;52.054;8.518;2022-12-31T11:09:55;99749.41;;;16.96;74.25
65716;BME280;63484;52.054;8.518;2022-12-31T11:15:11;99744.66;;;16.82;74.93
65716;BME280;63484;52.054;8.518;2022-12-31T11:25:53;99739.13;;;16.75;77.67
65716;BME280;63484;52.054;8.518;2022-12-31T11:36:40;99741.38;;;16.88;75.62
65716;BME280;63484;52.054;8.518;2022-12-31T11:41:53;99725.63;;;17.12;73.60
65716;BME280;63484;52.054;8.518;2022-12-31T11:47:15;99726.50;;;17.28;72.28
65716;BME280;63484;52.054;8.518;2022-12-31T11:52:32;99712.13;;;17.39;71.90
65716;BME280;63484;52.054;8.518;2022-12-31T11:57:37;99709.72;;;17.53;70.87
65716;BME280;63484;52.054;8.518;2022-12-31T12:02:43;99702.28;;;17.65;69.58
65716;BME280;63484;52.054;8.518;2022-12-31T12:07:45;99700.94;;;17.61;70.08
65716;BME280;63484;52.054;8.518;2022-12-31T12:12:46;99697.59;;;17.59;69.26
65716;BME280;63484;52.054;8.518;2022-12-31T12:17:52;99710.94;;;17.67;70.02
65716;BME280;63484;52.054;8.518;2022-12-31T12:22:55;99710.63;;;17.70;68.61
65716;BME280;63484;52.054;8.518;2022-12-31T12:27:55;99711.63;;;17.77;68.57
65716;BME280;63484;52.054;8.518;2022-12-31T12:33:01;99713.06;;;17.55;69.52
65716;BME280;63484;52.054;8.518;2022-12-31T12:38:13;99718.72;;;17.60;69.00
65716;BME280;63484;52.054;8.518;2022-12-31T12:43:28;99727.84;;;17.58;69.43
65716;BME280;63484;52.054;8.518;2022-12-31T12:48:40;99732.66;;;17.54;69.83
65716;BME280;63484;52.054;8.518;2022-12-31T12:53:49;99704.13;;;17.72;68.88
65716;BME280;63484;52.054;8.518;2022-12-31T12:59:13;99718.78;;;17.76;68.90
65716;BME280;63484;52.054;8.518;2022-12-31T13:09:54;99721.91;;;17.80;67.83
65716;BME280;63484;52.054;8.518;2022-12-31T13:15:08;99717.78;;;17.77;67.41
65716;BME280;63484;52.054;8.518;2022-12-31T13:20:22;99708.31;;;17.75;67.78
65716;BME280;63484;52.054;8.518;2022-12-31T13:25:37;99732.91;;;17.85;66.52
65716;BME280;63484;52.054;8.518;2022-12-31T13:30:46;99720.94;;;17.73;67.07
65716;BME280;63484;52.054;8.518;2022-12-31T13:35:50;99735.13;;;17.56;68.42
65716;BME280;63484;52.054;8.518;2022-12-31T13:41:10;99738.28;;;17.51;68.59
65716;BME280;63484;52.054;8.518;2022-12-31T13:46:48;99761.13;;;17.44;68.40
65716;BME280;63484;52.054;8.518;2022-12-31T13:51:54;99764.88;;;17.26;71.18
65716;BME280;63484;52.054;8.518;2022-12-31T13:57:09;99759.75;;;16.99;73.85
65716;BME280;63484;52.054;8.518;2022-12-31T14:02:24;99790.28;;;16.77;74.96
65716;BME280;63484;52.054;8.518;2022-12-31T14:07:34;99778.69;;;16.60;76.18
65716;BME280;63484;52.054;8.518;2022-12-31T14:12:48;99777.19;;;16.58;76.50
65716;BME280;63484;52.054;8.518;2022-12-31T14:18:03;99758.59;;;16.58;76.46
65716;BME280;63484;52.054;8.518;2022-12-31T14:23:22;99783.31;;;16.58;75.93
65716;BME280;63484;52.054;8.518;2022-12-31T14:29:03;99799.75;;;16.62;75.87
65716;BME280;63484;52.054;8.518;2022-12-31T14:34:12;99818.13;;;16.55;76.32
65716;BME280;63484;52.054;8.518;2022-12-31T14:39:28;99818.88;;;16.48;76.83
65716;BME280;63484;52.054;8.518;2022-12-31T14:44:58;99815.69;;;16.62;75.26
65716;BME280;63484;52.054;8.518;2022-12-31T14:50:09;99813.72;;;16.46;76.68
65716;BME280;63484;52.054;8.518;2022-12-31T15:05:35;99829.47;;;16.30;77.99
65716;BME280;63484;52.054;8.518;2022-12-31T15:11:07;99824.56;;;16.08;78.95
65716;BME280;63484;52.054;8.518;2022-12-31T15:21:33;99817.72;;;15.88;79.75
65716;BME280;63484;52.054;8.518;2022-12-31T15:26:36;99826.28;;;15.73;79.71
65716;BME280;63484;52.054;8.518;2022-12-31T15:31:44;99839.38;;;15.74;79.84
65716;BME280;63484;52.054;8.518;2022-12-31T15:36:52;99824.38;;;15.92;77.96
65716;BME280;63484;52.054;8.518;2022-12-31T15:41:53;99824.28;;;15.84;77.66
65716;BME280;63484;52.054;8.518;2022-12-31T15:46:58;99825.56;;;15.80;77.01
65716;BME280;63484;52.054;8.518;2022-12-31T15:52:10;99850.09;;;15.82;76.13
65716;BME280;63484;52.054;8.518;2022-12-31T15:57:17;99850.38;;;15.79;76.51
65716;BME280;63484;52.054;8.518;2022-12-31T16:02:22;99848.97;;;15.85;75.71
65716;BME280;63484;52.054;8.518;2022-12-31T16:07:23;99848.84;;;15.86;75.19
65716;BME280;63484;52.054;8.518;2022-12-31T16:12:27;99860.53;;;15.84;74.47
65716;BME280;63484;52.054;8.518;2022-12-31T16:17:32;99865.44;;;15.88;73.97
65716;BME280;63484;52.054;8.518;2022-12-31T16:22:38;99868.09;;;15.88;73.53
65716;BME280;63484;52.054;8.518;2022-12-31T16:27:39;99872.13;;;15.83;73.77
65716;BME280;63484;52.054;8.518;2022-12-31T16:32:39;99865.47;;;15.79;74.10
65716;BME280;63484;52.054;8.518;2022-12-31T16:37:40;99860.72;;;15.73;74.25
65716;BME280;63484;52.054;8.518;2022-12-31T16:42:41;99869.81;;;15.70;74.70
65716;BME280;63484;52.054;8.518;2022-12-31T16:47:42;99871.03;;;15.76;74.45
65716;BME280;63484;52.054;8.518;2022-12-31T16:52:45;99880.88;;;15.66;75.52
65716;BME280;63484;52.054;8.518;2022-12-31T16:57:53;99879.88;;;15.67;75.39
65716;BME280;63484;52.054;8.518;2022-12-31T17:03:04;99879.84;;;15.76;75.12
65716;BME280;63484;52.054;8.518;2022-12-31T17:08:21;99857.16;;;15.64;75.81
65716;BME280;63484;52.054;8.518;2022-12-31T17:13:27;99862.47;;;15.55;76.24
65716;BME280;63484;52.054;8.518;2022-12-31T17:18:35;99872.00;;;15.48;76.08
65716;BME280;63484;52.054;8.518;2022-12-31T17:23:36;99856.34;;;15.54;76.19
65716;BME280;63484;52.054;8.518;2022-12-31T17:28:46;99871.25;;;15.55;76.15
65716;BME280;63484;52.054;8.518;2022-12-31T17:33:56;99848.84;;;15.40;76.14
65716;BME280;63484;52.054;8.518;2022-12-31T17:39:15;99843.38;;;15.61;74.76
65716;BME280;63484;52.054;8.518;2022-12-31T17:44:20;99828.97;;;15.63;74.21
65716;BME280;63484;52.054;8.518;2022-12-31T17:49:26;99828.38;;;15.69;73.30
65716;BME280;63484;52.054;8.518;2022-12-31T17:54:27;99838.72;;;15.72;72.73
65716;BME280;63484;52.054;8.518;2022-12-31T17:59:28;99832.22;;;15.84;71.22
65716;BME280;63484;52.054;8.518;2022-12-31T18:04:29;99812.72;;;15.76;70.73
65716;BME280;63484;52.054;8.518;2022-12-31T18:09:29;99811.72;;;15.86;70.30
65716;BME280;63484;52.054;8.518;2022-12-31T18:14:30;99814.59;;;15.93;69.68
65716;BME280;63484;52.054;8.518;2022-12-31T18:19:30;99803.59;;;15.88;69.67
65716;BME280;63484;52.054;8.518;2022-12-31T18:24:31;99814.25;;;15.78;69.16
65716;BME280;63484;52.054;8.518;2022-12-31T18:29:31;99812.94;;;15.92;68.72
65716;BME280;63484;52.054;8.518;2022-12-31T18:34:31;99805.84;;;16.10;66.72
65716;BME280;63484;52.054;8.518;2022-12-31T18:39:31;99815.25;;;16.04;66.25
65716;BME280;63484;52.054;8.518;2022-12-31T18:44:32;99813.16;;;16.25;65.14
65716;BME280;63484;52.054;8.518;2022-12-31T18:49:32;99799.97;;;16.16;65.07
65716;BME280;63484;52.054;8.518;2022-12-31T18:54:32;99790.78;;;16.10;65.50
65716;BME280;63484;52.054;8.518;2022-12-31T18:59:33;99791.84;;;16.17;64.46
65716;BME280;63484;52.054;8.518;2022-12-31T19:04:33;99797.50;;;16.05;65.03
65716;BME280;63484;52.054;8.518;2022-12-31T19:09:33;99811.53;;;16.15;64.09
65716;BME280;63484;52.054;8.518;2022-12-31T19:14:34;99819.34;;;16.16;63.63
65716;BME280;63484;52.054;8.518;2022-12-31T19:19:34;99826.78;;;16.13;63.65
65716;BME280;63484;52.054;8.518;2022-12-31T19:24:34;99819.16;;;16.00;63.33
65716;BME280;63484;52.054;8.518;2022-12-31T19:29:35;99814.84;;;15.99;63.45
65716;BME280;63484;52.054;8.518;2022-12-31T19:34:35;99822.97;;;15.98;62.62
65716;BME280;63484;52.054;8.518;2022-12-31T19:39:35;99827.22;;;15.81;62.81
65716;BME280;63484;52.054;8.518;2022-12-31T19:44:36;99825.31;;;15.74;62.33
65716;BME280;63484;52.054;8.518;2022-12-31T19:49:36;99838.91;;;15.88;61.04
65716;BME280;63484;52.054;8.518;2022-12-31T19:54:36;99825.59;;;15.98;59.59
65716;BME280;63484;52.054;8.518;2022-12-31T19:59:37;99841.72;;;15.87;60.36
65716;BME280;63484;52.054;8.518;2022-12-31T20:04:37;99842.63;;;15.95;58.57
65716;BME280;63484;52.054;8.518;2022-12-31T20:09:37;99845.28;;;15.95;57.74
65716;BME280;63484;52.054;8.518;2022-12-31T20:14:37;99855.31;;;16.01;57.35
65716;BME280;63484;52.054;8.518;2022-12-31T20:19:38;99853.63;;;16.00;57.12
65716;BME280;63484;52.054;8.518;2022-12-31T20:24:38;99858.16;;;15.90;56.82
65716;BME280;63484;52.054;8.518;2022-12-31T20:29:38;99866.50;;;15.95;56.94
65716;BME280;63484;52.054;8.518;2022-12-31T20:34:39;99880.25;;;15.81;58.13
65716;BME280;63484;52.054;8.518;2022-12-31T20:39:39;99866.88;;;16.00;56.62
65716;BME280;63484;52.054;8.518;2022-12-31T20:44:39;99883.78;;;15.99;55.77
65716;BME280;63484;52.054;8.518;2022-12-31T20:49:40;99886.44;;;15.99;56.11
65716;BME280;63484;52.054;8.518;2022-12-31T20:54:40;99889.44;;;15.87;55.91
65716;BME280;63484;52.054;8.518;2022-12-31T20:59:40;99888.50;;;16.05;55.14
65716;BME280;63484;52.054;8.518;2022-12-31T21:04:41;99880.03;;;16.29;54.03
65716;BME280;63484;52.054;8.518;2022-12-31T21:09:41;99905.59;;;16.20;54.68
65716;BME280;63484;52.054;8.518;2022-12-31T21:14:41;99909.34;;;16.27;54.58
65716;BME280;63484;52.054;8.518;2022-12-31T21:19:42;99911.06;;;16.19;55.00
65716;BME280;63484;52.054;8.518;2022-12-31T21:24:42;99907.03;;;16.42;53.31
65716;BME280;63484;52.054;8.518;2022-12-31T21:29:42;99916.41;;;16.36;52.53
65716;BME280;63484;52.054;8.518;2022-12-31T21:34:43;99903.59;;;16.32;53.55
65716;BME280;63484;52.054;8.518;2022-12-31T21:39:43;99905.94;;;16.35;52.79
65716;BME280;63484;52.054;8.518;2022-12-31T21:44:43;99905.56;;;16.30;52.35
65716;BME280;63484;52.054;8.518;2022-12-31T21:49:44;99917.00;;;16.30;52.70
65716;BME280;63484;52.054;8.518;2022-12-31T21:54:44;99913.56;;;16.20;53.25
65716;BME280;63484;52.054;8.518;2022-12-31T22:00:04;99923.78;;;16.15;53.41
65716;BME280;63484;52.054;8.518;2022-12-31T22:05:24;99903.41;;;16.16;53.96
65716;BME280;63484;52.054;8.518;2022-12-31T22:10:24;99935.19;;;15.98;54.13
65716;BME280;63484;52.054;8.518;2022-12-31T22:15:24;99929.28;;;16.04;53.73
65716;BME280;63484;52.054;8.518;2022-12-31T22:20:25;99933.88;;;16.02;54.33
65716;BME280;63484;52.054;8.518;2022-12-31T22:25:25;99939.59;;;16.07;53.88
65716;BME280;63484;52.054;8.518;2022-12-31T22:30:25;99948.44;;;15.98;54.29
65716;BME280;63484;52.054;8.518;2022-12-31T22:35:26;99942.97;;;16.00;54.46
65716;BME280;63484;52.054;8.518;2022-12-31T22:40:26;99971.19;;;15.91;54.10
65716;BME280;63484;52.054;8.518;2022-12-31T22:45:26;99959.06;;;15.79;55.23
65716;BME280;63484;52.054;8.518;2022-12-31T22:50:27;99965.59;;;15.94;54.24
65716;BME280;63484;52.054;8.518;2022-12-31T22:55:27;99980.63;;;16.03;54.36
65716;BME280;63484;52.054;8.518;2022-12-31T23:00:38;99983.63;;;16.27;52.91
65716;BME280;63484;52.054;8.518;2022-12-31T23:05:40;99991.44;;;16.29;52.95
65716;BME280;63484;52.054;8.518;2022-12-31T23:10:45;99979.16;;;16.28;52.97
65716;BME280;63484;52.054;8.518;2022-12-31T23:16:04;99974.19;;;16.15;53.09
65716;BME280;63484;52.054;8.518;2022-12-31T23:21:24;99982.72;;;16.09;52.72
65716;BME280;63484;52.054;8.518;2022-12-31T23:26:43;99996.50;;;16.22;52.75
65716;BME280;63484;52.054;8.518;2022-12-31T23:31:43;100004.59;;;16.21;52.68
65716;BME280;63484;52.054;8.518;2022-12-31T23:36:43;99987.47;;;16.42;51.60
65716;BME280;63484;52.054;8.518;2022-12-31T23:41:44;99994.22;;;16.37;52.08
65716;BME280;63484;52.054;8.518;2022-12-31T23:46:44;100004.28;;;16.33;51.83
65716;BME280;63484;52.054;8.518;2022-12-31T23:51:45;100015.03;;;16.32;52.40
65716;BME280;63484;52.054;8.518;2022-12-31T23:56:45;99998.31;;;16.58;51.15
